Time;durP1;ratioP1;P1;durP2;ratioP2;P2;SDS_P1;SDS_P2;PMS_P1;PMS_P2;Temp;Humidity;BMP_temperature;BMP_pressure;BME280_temperature;BME280_humidity;BME280_pressure;Samples;Min_cycle;Max_cycle;Signal;HPM_P1;HPM_P2
2022/10/29 00:01:52;;;;;;;;;12.00;10.00;;;;;20.91;57.63;101553.44;4941754;28;45368;-66
2022/10/29 00:04:17;;;;;;;;;13.75;12.00;;;;;20.90;57.34;101535.66;4939989;28;45503;-68
2022/10/29 00:06:42;;;;;;;;;17.25;13.75;;;;;20.89;57.33;101531.25;4940997;28;45568;-67
2022/10/29 00:09:09;;;;;;;;;10.25;9.25;;;;;20.87;57.92;101536.66;4940288;28;46122;-66
2022/10/29 00:11:34;;;;;;;;;14.50;11.75;;;;;20.87;57.61;101530.47;4941161;28;45371;-66
2022/10/29 00:14:00;;;;;;;;;12.25;11.50;;;;;20.85;57.76;101527.00;4941616;28;45263;-66
2022/10/29 00:16:28;;;;;;;;;14.00;13.00;;;;;20.83;57.33;101510.16;4941256;28;45359;-66
2022/10/29 00:18:56;;;;;;;;;15.50;12.75;;;;;20.82;57.31;101501.28;4941449;28;45298;-66
2022/10/29 00:21:24;;;;;;;;;13.00;11.25;;;;;20.84;57.72;101501.22;4941358;28;45361;-66
2022/10/29 00:23:50;;;;;;;;;11.00;9.75;;;;;20.84;57.70;101490.53;4941669;28;45319;-66
2022/10/29 00:26:17;;;;;;;;;17.50;14.50;;;;;20.83;57.56;101487.00;4940768;28;45515;-66
2022/10/29 00:28:43;;;;;;;;;10.75;10.50;;;;;20.83;57.52;101491.47;4941348;28;45235;-65
2022/10/29 00:31:17;;;;;;;;;11.75;11.25;;;;;20.83;57.31;101496.81;4941330;28;45255;-65
2022/10/29 00:33:44;;;;;;;;;15.75;14.00;;;;;20.82;57.61;101490.59;4941456;28;45644;-66
2022/10/29 00:36:13;;;;;;;;;10.25;10.25;;;;;20.83;57.84;101497.69;4941148;28;45482;-66
2022/10/29 00:38:39;;;;;;;;;12.50;10.25;;;;;20.84;57.44;101490.53;4941301;28;46205;-67
2022/10/29 00:41:06;;;;;;;;;9.00;8.50;;;;;20.83;57.46;101491.47;4940699;28;45306;-66
2022/10/29 00:43:34;;;;;;;;;14.25;13.00;;;;;20.81;57.39;101458.63;4941307;28;45251;-66
2022/10/29 00:46:35;;;;;;;;;10.25;9.00;;;;;20.83;57.23;101480.78;4940938;28;45240;-66
2022/10/29 00:49:01;;;;;;;;;14.75;12.00;;;;;20.83;57.36;101483.44;4918631;28;46363;-66
2022/10/29 00:51:30;;;;;;;;;14.25;12.25;;;;;20.82;57.24;101482.59;4936751;28;45533;-66
2022/10/29 00:54:01;;;;;;;;;15.75;12.50;;;;;20.84;57.72;101459.38;4941034;28;45226;-66
2022/10/29 00:56:30;;;;;;;;;12.50;11.75;;;;;20.85;57.45;101460.22;4940748;28;45244;-67
2022/10/29 00:58:56;;;;;;;;;12.75;11.75;;;;;20.85;57.38;101460.22;4940615;28;45307;-66
2022/10/29 01:01:21;;;;;;;;;16.00;12.75;;;;;20.84;57.31;101458.47;4942061;28;45468;-66
2022/10/29 01:03:47;;;;;;;;;13.00;11.25;;;;;20.84;57.19;101448.69;4944107;28;45337;-66
2022/10/29 01:06:13;;;;;;;;;18.50;14.00;;;;;20.82;57.57;101450.53;4942930;28;46112;-65
2022/10/29 01:08:39;;;;;;;;;13.50;12.25;;;;;20.83;57.09;101438.03;4943626;28;46069;-66
2022/10/29 01:11:25;;;;;;;;;10.75;10.75;;;;;20.81;57.22;101439.94;4943761;28;45497;-65
2022/10/29 01:14:21;;;;;;;;;12.50;12.00;;;;;20.79;57.29;101431.97;4944278;28;45326;-66
2022/10/29 01:17:16;;;;;;;;;12.50;12.25;;;;;20.78;57.32;101422.25;4943895;28;45329;-66
2022/10/29 01:20:00;;;;;;;;;16.75;11.50;;;;;20.77;57.53;101429.38;4934266;28;46365;-66
2022/10/29 01:22:42;;;;;;;;;12.75;8.25;;;;;20.76;57.25;101424.13;4932747;28;45325;-66
2022/10/29 01:25:20;;;;;;;;;12.00;10.75;;;;;20.75;57.34;101420.59;4943822;28;45358;-67
2022/10/29 01:28:32;;;;;;;;;12.00;10.50;;;;;20.73;57.85;101419.78;4943634;28;45381;-66
2022/10/29 01:31:25;;;;;;;;;17.00;12.25;;;;;20.72;57.85;101420.72;4922589;28;46707;-67
2022/10/29 01:33:50;;;;;;;;;15.25;14.75;;;;;20.72;57.86;101419.88;4936560;28;45179;-67
2022/10/29 01:36:38;;;;;;;;;11.25;10.00;;;;;20.70;57.51;101416.34;4943836;28;45227;-67
2022/10/29 01:39:09;;;;;;;;;13.50;12.00;;;;;20.71;57.22;101413.63;4943859;28;45334;-67
2022/10/29 01:41:52;;;;;;;;;14.00;13.00;;;;;20.68;57.30;101408.44;4943207;28;46191;-67
2022/10/29 01:45:14;;;;;;;;;14.50;11.50;;;;;20.67;57.74;101409.34;4943523;28;45263;-67
2022/10/29 01:47:44;;;;;;;;;11.00;8.50;;;;;20.63;57.43;101407.78;4922129;28;45525;-65
2022/10/29 01:50:15;;;;;;;;;11.00;11.00;;;;;20.63;57.27;101394.44;4922467;28;45245;-65
2022/10/29 01:52:41;;;;;;;;;10.50;9.25;;;;;20.62;57.65;101380.19;4935542;28;46233;-67
2022/10/29 01:55:07;;;;;;;;;12.75;10.50;;;;;20.61;57.65;101377.59;4943532;28;45331;-67
2022/10/29 01:57:35;;;;;;;;;14.00;12.25;;;;;20.59;57.78;101377.69;4943041;28;45247;-65
2022/10/29 02:00:04;;;;;;;;;2.75;2.75;;;;;20.57;57.53;101378.69;4943717;28;45552;-65
2022/10/29 02:02:36;;;;;;;;;17.00;14.00;;;;;20.55;57.18;101378.75;4943331;28;46954;-67
2022/10/29 02:05:19;;;;;;;;;13.75;12.25;;;;;20.55;57.72;101375.22;4943212;28;45393;-65
2022/10/29 02:07:53;;;;;;;;;14.75;13.25;;;;;20.53;57.84;101358.41;4943456;28;45244;-67
2022/10/29 02:10:39;;;;;;;;;9.00;9.00;;;;;20.52;57.14;101351.34;4943150;28;45382;-67
2022/10/29 02:13:08;;;;;;;;;15.00;11.50;;;;;20.48;57.69;101329.25;4942873;28;45485;-67
2022/10/29 02:15:41;;;;;;;;;11.75;9.00;;;;;20.51;57.66;101339.78;4943164;28;45373;-67
2022/10/29 02:18:07;;;;;;;;;17.00;13.25;;;;;20.50;57.41;101334.50;4943196;28;45323;-65
2022/10/29 02:20:33;;;;;;;;;18.75;13.25;;;;;20.49;57.15;101330.09;4942909;28;45479;-65
2022/10/29 02:22:59;;;;;;;;;17.50;16.00;;;;;20.49;57.36;101324.78;4942923;28;45326;-65
2022/10/29 02:25:24;;;;;;;;;14.00;12.50;;;;;20.50;57.27;101329.19;4942970;28;45310;-65
2022/10/29 02:27:49;;;;;;;;;13.75;10.25;;;;;20.50;57.62;101324.69;4941545;28;45274;-66
2022/10/29 02:30:15;;;;;;;;;14.25;11.00;;;;;20.50;57.27;101323.84;4942959;28;45318;-67
2022/10/29 02:32:40;;;;;;;;;12.50;11.00;;;;;20.50;57.74;101319.34;4942864;28;46193;-67
2022/10/29 02:35:06;;;;;;;;;12.25;10.00;;;;;20.48;57.08;101321.25;4943012;28;45289;-67
2022/10/29 02:37:32;;;;;;;;;14.50;12.00;;;;;20.48;57.29;101309.69;4942908;28;45316;-67
2022/10/29 02:39:57;;;;;;;;;11.25;9.50;;;;;20.46;57.54;101307.97;4942841;28;45528;-67
2022/10/29 02:42:22;;;;;;;;;15.75;10.75;;;;;20.44;57.15;101311.66;4942447;28;45301;-67
2022/10/29 02:44:48;;;;;;;;;11.25;10.25;;;;;20.40;57.17;101302.94;4942753;28;45376;-67
2022/10/29 02:47:14;;;;;;;;;8.00;6.25;;;;;20.41;57.59;101296.63;4942757;28;45401;-66
2022/10/29 02:49:39;;;;;;;;;15.00;11.00;;;;;20.40;57.11;101300.25;4941511;28;45249;-65
2022/10/29 02:52:04;;;;;;;;;15.25;11.75;;;;;20.41;57.67;101295.78;4942440;28;49770;-65
2022/10/29 02:54:30;;;;;;;;;11.25;11.00;;;;;20.41;57.24;101299.28;4942731;28;45152;-65
2022/10/29 02:56:55;;;;;;;;;9.75;9.00;;;;;20.39;57.33;101301.19;4942233;28;45222;-65
2022/10/29 02:59:21;;;;;;;;;14.50;13.00;;;;;20.36;57.10;101287.97;4942582;28;45184;-67
2022/10/29 03:01:46;;;;;;;;;10.75;9.00;;;;;20.34;57.60;101287.19;4942441;28;46287;-65
2022/10/29 03:04:12;;;;;;;;;14.50;11.25;;;;;20.36;57.63;101289.78;4942650;28;45310;-65
2022/10/29 03:06:37;;;;;;;;;10.50;9.50;;;;;20.35;57.04;101290.72;4942454;28;45302;-65
2022/10/29 03:09:03;;;;;;;;;11.50;10.00;;;;;20.32;57.04;101286.38;4942569;28;45245;-66
2022/10/29 03:11:28;;;;;;;;;9.75;7.50;;;;;20.35;57.27;101288.94;4941954;28;46462;-65
2022/10/29 03:13:53;;;;;;;;;11.25;10.25;;;;;20.36;57.54;101284.44;4942430;28;45378;-66
2022/10/29 03:16:19;;;;;;;;;11.75;10.50;;;;;20.36;56.92;101277.28;4942378;28;45476;-67
2022/10/29 03:18:44;;;;;;;;;11.25;7.75;;;;;20.34;57.12;101281.84;4942353;28;45538;-65
2022/10/29 03:21:09;;;;;;;;;15.25;11.25;;;;;20.37;57.32;101272.84;4942143;28;46021;-66
2022/10/29 03:23:35;;;;;;;;;14.00;9.75;;;;;20.36;57.25;101290.63;4941756;28;45349;-65
2022/10/29 03:26:00;;;;;;;;;9.50;9.00;;;;;20.35;56.95;101288.06;4940648;28;45560;-66
2022/10/29 03:28:29;;;;;;;;;12.75;9.50;;;;;20.35;56.98;101294.28;4942274;28;45505;-65
2022/10/29 03:30:56;;;;;;;;;10.00;8.50;;;;;20.34;57.11;101287.19;4941933;28;46217;-65
2022/10/29 03:33:21;;;;;;;;;11.25;10.00;;;;;20.37;57.21;101295.03;4942106;28;45333;-65
2022/10/29 03:35:46;;;;;;;;;17.00;11.25;;;;;20.35;57.47;101282.72;4942017;28;45280;-65
2022/10/29 03:38:12;;;;;;;;;12.00;10.75;;;;;20.34;56.84;101289.88;4941982;28;45370;-65
2022/10/29 03:40:37;;;;;;;;;10.75;8.25;;;;;20.35;56.85;101282.72;4941764;28;45321;-66
2022/10/29 03:43:02;;;;;;;;;14.75;8.75;;;;;20.33;56.87;101279.28;4941907;28;45385;-66
2022/10/29 03:45:28;;;;;;;;;12.75;10.75;;;;;20.32;57.37;101283.72;4942082;28;45361;-66
2022/10/29 03:47:53;;;;;;;;;9.50;8.00;;;;;20.28;57.00;101285.66;4941838;28;45291;-66
2022/10/29 03:50:18;;;;;;;;;13.75;9.50;;;;;20.30;57.06;101285.59;4941711;28;45267;-66
2022/10/29 03:52:44;;;;;;;;;8.00;8.00;;;;;20.30;57.47;101286.47;4942084;28;45410;-66
2022/10/29 03:55:09;;;;;;;;;13.50;13.50;;;;;20.30;57.39;101285.59;4941846;28;45258;-66
2022/10/29 03:57:34;;;;;;;;;13.25;10.00;;;;;20.30;56.88;101280.25;4941467;28;45274;-66
2022/10/29 04:00:00;;;;;;;;;12.50;10.50;;;;;20.30;57.11;101261.56;4941494;28;45960;-66
2022/10/29 04:02:25;;;;;;;;;11.00;11.00;;;;;20.30;57.16;101261.56;4941896;28;45329;-66
2022/10/29 04:04:50;;;;;;;;;11.00;10.00;;;;;20.28;57.31;101253.63;4940506;28;45410;-66
2022/10/29 04:07:16;;;;;;;;;13.00;11.25;;;;;20.25;57.01;101260.91;4941871;28;45281;-66
2022/10/29 04:09:41;;;;;;;;;10.75;9.50;;;;;20.28;56.86;101269.66;4941653;28;45160;-66
2022/10/29 04:12:08;;;;;;;;;9.25;8.75;;;;;20.26;57.08;101278.66;4941378;28;45165;-66
2022/10/29 04:14:33;;;;;;;;;9.75;9.00;;;;;20.27;57.48;101286.59;4941682;28;45484;-66
2022/10/29 04:16:59;;;;;;;;;11.25;9.75;;;;;20.25;57.37;101283.16;4941469;28;45185;-66
2022/10/29 04:19:24;;;;;;;;;10.00;9.50;;;;;20.25;57.03;101291.16;4941277;28;45896;-66
2022/10/29 04:21:50;;;;;;;;;11.00;9.00;;;;;20.25;56.91;101295.59;4941485;28;45171;-66
2022/10/29 04:24:15;;;;;;;;;9.50;9.50;;;;;20.24;57.40;101302.75;4941634;28;45559;-66
2022/10/29 04:26:44;;;;;;;;;14.25;12.50;;;;;20.23;57.34;101300.16;4939665;28;45518;-66
2022/10/29 04:29:10;;;;;;;;;11.50;10.75;;;;;20.23;56.78;101302.84;4941249;28;46426;-66
2022/10/29 04:31:36;;;;;;;;;12.25;10.25;;;;;20.22;57.30;101298.44;4941315;28;45314;-65
2022/10/29 04:34:01;;;;;;;;;14.50;10.50;;;;;20.20;56.84;101294.97;4940365;28;45458;-66
2022/10/29 04:36:27;;;;;;;;;11.00;8.25;;;;;20.20;57.29;101278.94;4944540;28;45479;-66
2022/10/29 04:38:52;;;;;;;;;10.25;9.50;;;;;20.20;57.05;101266.50;4944737;28;46136;-66
2022/10/29 04:41:17;;;;;;;;;11.75;9.00;;;;;20.19;56.77;101270.09;4944381;28;45245;-66
2022/10/29 04:43:43;;;;;;;;;11.50;8.75;;;;;20.17;56.76;101268.44;4944914;28;45247;-66
2022/10/29 04:46:09;;;;;;;;;15.25;11.00;;;;;20.20;57.30;101271.84;4944777;28;45309;-66
2022/10/29 04:48:34;;;;;;;;;10.75;9.00;;;;;20.20;57.32;101261.16;4944350;28;45490;-66
2022/10/29 04:51:00;;;;;;;;;16.25;12.25;;;;;20.18;57.07;101259.50;4944355;28;45996;-66
2022/10/29 04:53:25;;;;;;;;;14.00;10.00;;;;;20.19;56.79;101258.53;4943505;28;45336;-65
2022/10/29 04:55:51;;;;;;;;;12.50;10.25;;;;;20.19;56.78;101255.88;4944220;28;45374;-66
2022/10/29 04:58:18;;;;;;;;;11.00;8.75;;;;;20.16;57.17;101229.34;4942917;28;46980;-66
2022/10/29 05:00:43;;;;;;;;;13.00;11.75;;;;;20.09;57.19;101215.44;4944333;28;45274;-66
2022/10/29 05:03:09;;;;;;;;;16.25;11.75;;;;;20.16;57.15;101242.69;4944333;28;45218;-66
2022/10/29 05:05:38;;;;;;;;;11.25;9.75;;;;;20.19;56.82;101235.41;4943124;28;45519;-66
2022/10/29 05:08:05;;;;;;;;;13.50;11.75;;;;;20.19;57.27;101239.84;4944282;28;45237;-66
2022/10/29 05:10:36;;;;;;;;;10.75;10.25;;;;;20.19;57.22;101239.84;4944140;28;45196;-66
2022/10/29 05:13:08;;;;;;;;;13.00;12.00;;;;;20.18;57.21;101241.69;4944033;28;45247;-66
2022/10/29 05:15:34;;;;;;;;;10.50;10.50;;;;;20.19;57.27;101250.53;4942934;28;45331;-66
2022/10/29 05:17:59;;;;;;;;;12.25;10.00;;;;;20.19;57.10;101245.19;4944199;28;45397;-66
2022/10/29 05:20:26;;;;;;;;;9.50;9.00;;;;;20.20;57.05;101246.94;4944004;28;45349;-66
2022/10/29 05:23:06;;;;;;;;;15.50;11.25;;;;;20.20;56.63;101233.59;4942816;28;45263;-66
2022/10/29 05:25:33;;;;;;;;;14.00;10.50;;;;;20.17;56.67;101229.25;4943863;28;45532;-66
2022/10/29 05:28:03;;;;;;;;;13.75;10.50;;;;;20.18;57.37;101233.66;4943429;28;46287;-66
2022/10/29 05:30:29;;;;;;;;;12.00;8.50;;;;;20.19;57.29;101229.19;4943867;28;45418;-66
2022/10/29 05:32:54;;;;;;;;;11.25;8.75;;;;;20.17;57.29;101231.09;4944094;28;45243;-66
2022/10/29 05:35:19;;;;;;;;;10.00;8.75;;;;;20.16;57.30;101227.53;4944038;28;45242;-66
2022/10/29 05:37:55;;;;;;;;;11.00;11.00;;;;;20.15;56.65;101225.81;4943611;28;51409;-66
2022/10/29 05:40:22;;;;;;;;;11.00;10.50;;;;;20.13;56.73;101223.19;4943720;28;45235;-66
2022/10/29 05:42:47;;;;;;;;;11.00;10.00;;;;;20.14;56.68;101213.41;4943582;28;45327;-67
2022/10/29 05:45:13;;;;;;;;;11.25;10.25;;;;;20.12;57.21;101216.16;4941728;28;45498;-67
2022/10/29 05:47:38;;;;;;;;;10.25;8.25;;;;;20.11;57.00;101214.44;4943486;28;46408;-66
2022/10/29 05:50:04;;;;;;;;;11.00;9.00;;;;;20.12;56.82;101208.16;4943592;28;45362;-66
2022/10/29 05:52:29;;;;;;;;;8.75;8.00;;;;;20.11;57.17;101201.09;4943925;28;45259;-66
2022/10/29 05:54:55;;;;;;;;;11.00;10.00;;;;;20.11;57.08;101203.75;4943543;28;45499;-66
2022/10/29 05:57:20;;;;;;;;;15.25;11.50;;;;;20.13;56.76;101199.19;4927570;28;47260;-62
2022/10/29 05:59:46;;;;;;;;;13.75;11.25;;;;;20.10;56.78;101202.03;4938539;28;45246;-64
2022/10/29 06:02:11;;;;;;;;;12.75;11.00;;;;;20.13;56.70;101209.88;4943387;28;45275;-64
2022/10/29 06:04:37;;;;;;;;;12.00;10.00;;;;;20.13;57.05;101204.53;4938799;28;45555;-64
2022/10/29 06:07:02;;;;;;;;;11.75;10.25;;;;;20.13;56.63;101201.84;4943096;28;46108;-64
2022/10/29 06:09:27;;;;;;;;;12.50;10.25;;;;;20.12;56.66;101194.81;4943194;28;45211;-64
2022/10/29 06:11:54;;;;;;;;;12.50;9.75;;;;;20.14;56.55;101200.94;4942737;28;45270;-63
2022/10/29 06:14:19;;;;;;;;;10.50;9.25;;;;;20.15;56.81;101201.81;4942116;28;45350;-63
2022/10/29 06:16:44;;;;;;;;;14.75;11.00;;;;;20.16;56.73;101195.50;4941274;28;45963;-59
2022/10/29 06:19:09;;;;;;;;;12.50;12.50;;;;;20.17;56.59;101169.72;4943124;28;45322;-59
2022/10/29 06:21:35;;;;;;;;;12.50;11.00;;;;;20.17;56.57;101175.06;4943046;28;45164;-61
2022/10/29 06:24:00;;;;;;;;;12.50;11.00;;;;;20.17;56.73;101167.06;4942961;28;45317;-59
2022/10/29 06:26:26;;;;;;;;;15.25;11.50;;;;;20.16;57.13;101159.97;4940820;28;45515;-59
2022/10/29 06:28:51;;;;;;;;;15.00;13.25;;;;;20.16;56.88;101192.84;4941545;28;49332;-61
2022/10/29 06:31:16;;;;;;;;;13.75;11.25;;;;;20.13;56.67;101198.34;4941420;28;45436;-61
2022/10/29 06:33:42;;;;;;;;;10.75;10.00;;;;;20.12;56.52;101197.50;4941657;28;45658;-60
2022/10/29 06:36:07;;;;;;;;;19.25;15.25;;;;;20.11;56.69;101200.19;4941318;28;46147;-60
2022/10/29 06:38:33;;;;;;;;;15.25;12.25;;;;;20.10;56.94;101199.34;4942813;28;45485;-60
2022/10/29 06:40:58;;;;;;;;;13.25;13.25;;;;;20.06;56.50;101195.09;4942051;28;45503;-64
2022/10/29 06:43:23;;;;;;;;;10.00;7.00;;;;;20.05;56.78;101197.81;4942330;28;45464;-67
2022/10/29 06:45:49;;;;;;;;;14.00;12.25;;;;;19.95;57.18;101168.94;4941006;28;46045;-65
2022/10/29 06:48:14;;;;;;;;;15.00;11.50;;;;;20.04;56.72;101191.63;4942255;28;45401;-65
2022/10/29 06:50:40;;;;;;;;;24.50;20.25;;;;;20.05;56.67;101238.72;4940720;28;45558;-65
2022/10/29 06:53:09;;;;;;;;;14.75;12.25;;;;;20.02;56.52;101232.66;4942337;28;45369;-65
2022/10/29 06:55:34;;;;;;;;;15.00;15.00;;;;;20.00;56.97;101240.72;4941915;28;46084;-65
2022/10/29 06:58:02;;;;;;;;;13.75;12.25;;;;;19.99;56.53;101223.00;4939869;28;45416;-65
2022/10/29 07:00:29;;;;;;;;;14.25;13.25;;;;;19.94;56.60;101215.19;4940867;28;45426;-65
2022/10/29 07:02:55;;;;;;;;;12.50;12.25;;;;;19.93;56.75;101229.47;4942036;28;45259;-64
2022/10/29 07:05:21;;;;;;;;;12.50;10.00;;;;;19.95;56.74;101229.41;4936968;28;47038;-65
2022/10/29 07:07:46;;;;;;;;;15.25;10.50;;;;;19.91;57.11;101234.03;4941853;28;45220;-65
2022/10/29 07:10:12;;;;;;;;;13.50;12.25;;;;;19.93;56.81;101220.59;4942078;28;45860;-64
2022/10/29 07:12:42;;;;;;;;;18.25;12.75;;;;;19.90;57.15;101191.41;4941655;28;45249;-64
2022/10/29 07:15:08;;;;;;;;;12.75;12.75;;;;;19.89;57.04;101225.22;4941923;28;46443;-64
2022/10/29 07:17:34;;;;;;;;;13.00;10.25;;;;;19.87;57.00;101239.56;4941851;28;45326;-64
2022/10/29 07:19:59;;;;;;;;;15.00;13.00;;;;;19.86;57.16;101224.47;4942209;28;45406;-64
2022/10/29 07:22:24;;;;;;;;;13.25;13.25;;;;;19.84;56.78;101223.72;4941860;28;45719;-64
2022/10/29 07:24:50;;;;;;;;;13.50;11.25;;;;;19.78;56.81;101209.66;4941986;28;45329;-64
2022/10/29 07:27:15;;;;;;;;;8.25;5.00;;;;;19.78;57.12;101209.66;4941345;28;45404;-64
2022/10/29 07:29:40;;;;;;;;;10.00;8.00;;;;;19.73;56.87;101216.16;4942305;28;45318;-64
2022/10/29 07:32:05;;;;;;;;;15.50;13.75;;;;;19.73;57.34;101216.16;4941589;28;45306;-63
2022/10/29 07:34:31;;;;;;;;;20.00;12.25;;;;;19.73;57.19;101208.16;4941901;28;47419;-63
2022/10/29 07:36:56;;;;;;;;;17.75;14.50;;;;;19.72;57.36;101203.75;4941385;28;50863;-63
2022/10/29 07:39:22;;;;;;;;;16.00;14.75;;;;;19.69;57.20;101194.09;4942236;28;45159;-63
2022/10/29 07:41:47;;;;;;;;;13.50;13.00;;;;;19.69;57.28;101202.09;4941223;28;45314;-63
2022/10/29 07:44:12;;;;;;;;;17.75;15.00;;;;;19.68;57.23;101203.00;4941495;28;53258;-63
2022/10/29 07:46:38;;;;;;;;;16.00;13.50;;;;;19.68;56.84;101200.34;4939985;28;45255;-64
2022/10/29 07:49:03;;;;;;;;;14.25;12.50;;;;;19.67;56.90;101197.75;4941725;28;45382;-64
2022/10/29 07:51:28;;;;;;;;;14.75;12.25;;;;;19.66;57.35;101188.91;4941618;28;45511;-64
2022/10/29 07:53:54;;;;;;;;;14.50;14.50;;;;;19.68;57.42;101208.34;4941556;28;45468;-64
2022/10/29 07:56:19;;;;;;;;;20.50;14.25;;;;;19.68;57.44;101200.34;4940804;28;45436;-64
2022/10/29 07:58:44;;;;;;;;;15.00;12.75;;;;;19.68;57.31;101202.16;4931512;28;45496;-64
2022/10/29 08:01:10;;;;;;;;;16.50;14.50;;;;;19.69;57.31;101209.22;4941611;28;45486;-64
2022/10/29 08:03:35;;;;;;;;;14.00;11.25;;;;;19.67;57.23;101206.63;4939715;28;46038;-64
2022/10/29 08:06:01;;;;;;;;;14.50;12.75;;;;;19.72;57.45;101225.06;4936848;28;45421;-64
2022/10/29 08:08:26;;;;;;;;;14.25;12.25;;;;;19.73;57.06;101230.34;4941330;28;45373;-64
2022/10/29 08:10:51;;;;;;;;;14.75;14.50;;;;;19.75;57.12;101216.97;4940861;28;45261;-64
2022/10/29 08:13:17;;;;;;;;;13.75;13.50;;;;;19.77;57.21;101229.28;4941163;28;47551;-64
2022/10/29 08:15:45;;;;;;;;;12.50;11.00;;;;;19.78;57.03;101227.47;4939699;28;45263;-64
2022/10/29 08:18:14;;;;;;;;;14.75;12.25;;;;;19.81;57.48;101227.34;4940848;28;45449;-64
2022/10/29 08:20:40;;;;;;;;;11.75;9.75;;;;;19.82;57.43;101229.06;4938627;28;45544;-64
2022/10/29 08:23:05;;;;;;;;;12.50;9.75;;;;;19.83;57.34;101222.81;4941194;28;46335;-64
2022/10/29 08:25:30;;;;;;;;;13.25;9.00;;;;;19.84;57.01;101224.56;4940287;28;54404;-64
2022/10/29 08:28:04;;;;;;;;;10.00;9.25;;;;;19.87;56.82;101235.06;4941390;28;45264;-64
2022/10/29 08:30:31;;;;;;;;;11.25;9.00;;;;;19.90;57.34;101228.72;4940989;28;45179;-64
2022/10/29 08:32:56;;;;;;;;;14.75;10.25;;;;;19.91;57.24;101220.69;4940963;28;46076;-64
2022/10/29 08:35:22;;;;;;;;;9.75;9.75;;;;;19.97;57.04;101222.19;4940879;28;45560;-64
2022/10/29 08:37:48;;;;;;;;;13.00;8.75;;;;;19.99;57.25;101228.34;4941243;28;45425;-64
2022/10/29 08:40:38;;;;;;;;;10.25;7.25;;;;;20.04;56.57;101223.66;4940705;28;45460;-64
2022/10/29 08:43:06;;;;;;;;;10.00;10.00;;;;;20.09;56.51;101218.97;4940863;28;47181;-64
2022/10/29 08:45:58;;;;;;;;;9.25;8.25;;;;;20.14;56.22;101216.09;4940625;28;45278;-64
2022/10/29 08:48:32;;;;;;;;;9.50;9.00;;;;;20.21;56.43;101206.84;4939383;28;45521;-64
2022/10/29 08:51:29;;;;;;;;;10.00;8.25;;;;;20.28;56.41;101207.44;4940904;28;45319;-64
2022/10/29 08:53:57;;;;;;;;;9.50;9.50;;;;;20.34;56.62;101207.13;4927317;28;47109;-64
2022/10/29 08:56:32;;;;;;;;;7.50;7.25;;;;;20.41;56.36;101199.69;4939957;28;45448;-64
2022/10/29 08:59:14;;;;;;;;;10.50;10.25;;;;;20.45;56.30;101203.94;4931651;28;45466;-64
2022/10/29 09:01:39;;;;;;;;;11.25;10.00;;;;;20.51;56.55;101222.31;4940542;28;45477;-64
2022/10/29 09:04:23;;;;;;;;;8.75;7.50;;;;;20.57;56.35;101229.19;4935319;28;45291;-64
2022/10/29 09:07:13;;;;;;;;;18.50;10.50;;;;;20.67;55.97;101240.28;4938887;28;45172;-65
2022/10/29 09:09:49;;;;;;;;;9.50;9.00;;;;;20.71;56.06;101244.56;4940685;28;45377;-64
2022/10/29 09:12:44;;;;;;;;;10.75;8.50;;;;;20.82;55.70;101250.25;4940196;28;45778;-64
2022/10/29 09:15:24;;;;;;;;;8.25;7.00;;;;;20.93;56.30;101234.53;4931357;28;45490;-64
2022/10/29 09:18:15;;;;;;;;;10.75;8.00;;;;;21.04;55.56;101236.69;4937910;28;45356;-64
2022/10/29 09:21:06;;;;;;;;;9.50;8.00;;;;;21.16;55.90;101242.34;4938663;28;45419;-64
2022/10/29 09:23:50;;;;;;;;;12.50;9.00;;;;;21.23;55.84;101236.63;4936885;28;45294;-64
2022/10/29 09:26:30;;;;;;;;;10.00;8.75;;;;;21.29;55.81;101238.09;4942984;28;46131;-64
2022/10/29 09:29:05;;;;;;;;;8.25;8.00;;;;;21.35;55.69;101232.44;4943649;28;45345;-64
2022/10/29 09:31:30;;;;;;;;;7.00;7.00;;;;;21.42;55.71;101236.53;4943827;28;45456;-64
2022/10/29 09:34:10;;;;;;;;;10.25;8.00;;;;;21.49;55.36;101233.53;4943381;28;45385;-64
2022/10/29 09:36:36;;;;;;;;;7.50;7.50;;;;;21.54;55.03;101235.00;4943563;28;45408;-64
2022/10/29 09:39:09;;;;;;;;;12.00;8.50;;;;;21.61;55.57;101227.56;4943449;28;45243;-64
2022/10/29 09:41:37;;;;;;;;;8.00;7.50;;;;;21.67;55.37;101221.91;4943107;28;45382;-64
2022/10/29 09:44:04;;;;;;;;;9.00;8.00;;;;;21.73;55.00;101231.38;4943292;28;45392;-64
2022/10/29 09:46:45;;;;;;;;;12.50;10.00;;;;;21.78;55.32;101225.81;4943257;28;45358;-64
2022/10/29 09:49:20;;;;;;;;;11.00;7.75;;;;;21.79;55.25;101225.72;4938039;28;45297;-64
2022/10/29 09:51:57;;;;;;;;;10.00;8.25;;;;;21.91;55.12;101227.72;4943303;28;45400;-64
2022/10/29 09:54:25;;;;;;;;;8.75;8.00;;;;;21.96;54.89;101206.09;4943404;28;45501;-64
2022/10/29 09:56:51;;;;;;;;;12.75;12.00;;;;;22.14;54.94;101219.38;4939264;28;45412;-64
2022/10/29 09:59:28;;;;;;;;;9.00;7.75;;;;;22.24;54.69;101225.97;4936365;28;45388;-64
2022/10/29 10:01:53;;;;;;;;;11.00;9.00;;;;;22.34;54.77;101235.19;4943450;28;45174;-64
2022/10/29 10:04:28;;;;;;;;;10.00;8.75;;;;;22.41;54.51;101238.41;4936745;28;45428;-64
2022/10/29 10:07:08;;;;;;;;;8.25;8.25;;;;;22.49;54.46;101241.53;4942772;28;46104;-64
2022/10/29 10:09:55;;;;;;;;;13.50;9.50;;;;;22.53;54.46;101237.72;4942846;28;45515;-64
2022/10/29 10:12:24;;;;;;;;;11.25;11.25;;;;;22.62;54.60;101228.31;4938981;28;45619;-64
2022/10/29 10:15:06;;;;;;;;;10.25;8.00;;;;;22.72;54.23;101217.94;4942910;28;45191;-64
2022/10/29 10:18:01;;;;;;;;;12.75;12.00;;;;;22.81;54.12;101221.91;4939898;28;45428;-64
2022/10/29 10:20:36;;;;;;;;;12.75;9.50;;;;;22.84;54.23;101214.53;4939964;28;45266;-64
2022/10/29 10:23:16;;;;;;;;;13.25;10.25;;;;;22.92;54.00;101211.41;4942888;28;45422;-64
2022/10/29 10:25:41;;;;;;;;;10.00;10.00;;;;;22.99;53.71;101212.78;4941965;28;45382;-64
2022/10/29 10:28:17;;;;;;;;;11.25;10.00;;;;;23.04;54.09;101212.50;4942691;28;46235;-64
2022/10/29 10:30:44;;;;;;;;;11.75;9.50;;;;;23.05;53.66;101206.19;4942597;28;45381;-64
2022/10/29 10:33:24;;;;;;;;;13.25;11.50;;;;;23.14;53.85;101210.97;4941599;28;45365;-64
2022/10/29 10:35:51;;;;;;;;;10.00;9.50;;;;;23.20;54.05;101202.59;4942667;28;45441;-64
2022/10/29 10:38:17;;;;;;;;;9.25;7.75;;;;;23.24;53.55;101200.59;4942529;28;46406;-64
2022/10/29 10:40:42;;;;;;;;;12.50;10.00;;;;;23.34;53.91;101209.81;4941898;28;45359;-64
2022/10/29 10:43:20;;;;;;;;;12.75;9.25;;;;;23.39;54.14;101197.97;4942746;28;45393;-64
2022/10/29 10:45:57;;;;;;;;;10.00;10.00;;;;;23.46;53.76;101186.75;4932709;28;45461;-64
2022/10/29 10:48:25;;;;;;;;;12.00;9.00;;;;;23.56;53.68;101192.44;4938845;28;45456;-64
2022/10/29 10:50:52;;;;;;;;;12.75;11.00;;;;;23.61;53.96;101179.59;4942401;28;45239;-64
2022/10/29 10:53:22;;;;;;;;;8.75;7.75;;;;;23.72;53.96;101186.94;4941302;28;45366;-64
2022/10/29 10:55:56;;;;;;;;;13.75;10.75;;;;;23.78;53.74;101181.19;4941887;28;45509;-64
2022/10/29 10:58:30;;;;;;;;;13.50;11.75;;;;;23.90;53.44;101171.53;4927299;28;45567;-64
2022/10/29 11:01:02;;;;;;;;;11.00;9.75;;;;;23.97;53.51;101175.56;4942373;28;45511;-64
2022/10/29 11:03:37;;;;;;;;;7.00;7.00;;;;;24.06;53.36;101166.03;4941927;28;45287;-64
2022/10/29 11:06:09;;;;;;;;;8.25;7.50;;;;;24.15;53.01;101156.53;4935152;28;45325;-64
2022/10/29 11:08:48;;;;;;;;;7.75;7.00;;;;;24.26;53.19;101159.38;4942149;28;45357;-64
2022/10/29 11:11:31;;;;;;;;;9.50;8.50;;;;;24.38;52.87;101167.59;4941946;28;45478;-64
2022/10/29 11:14:09;;;;;;;;;12.75;10.00;;;;;24.45;53.07;101153.69;4942441;28;45453;-64
2022/10/29 11:16:45;;;;;;;;;5.75;5.75;;;;;24.56;52.55;101160.16;4941967;28;45510;-64
2022/10/29 11:19:17;;;;;;;;;8.75;7.25;;;;;24.65;52.91;101167.63;4942055;28;45383;-64
2022/10/29 11:21:46;;;;;;;;;10.00;8.25;;;;;24.71;52.27;101155.63;4942174;28;45380;-64
2022/10/29 11:24:25;;;;;;;;;8.00;5.25;;;;;24.78;51.86;101167.66;4940931;28;45385;-64
2022/10/29 11:26:53;;;;;;;;;6.25;6.25;;;;;24.87;52.19;101155.41;4941662;28;45219;-64